Terminal Aerodrome Forecast
Issued by NWS

Home | Current Version | Previous Version | Graphics & Text | Print | Product List | Glossary On
Versions: 1 2 3 4 5 6 7 8 9 10 11 12 13 14 15 16
000
FTUS43 KMPX 300800 AAA
TAFRWF
TAF AMD
KRWF 300854Z 3009/3106 30003KT P6SM FEW006 SCT015 OVC025
     FM301000 32005KT 3SM BR OVC005
     FM301600 32005KT P6SM BKN010 OVC020
     FM301800 32004KT P6SM BKN020 OVC040
     FM302100 VRB03KT P6SM FEW020 BKN050
     FM310000 16004KT P6SM FEW250=

USA.gov is the U.S. government's official web portal to all federal, state and local government web resources and services.